sensor_id;sensor_type;location;lat;lon;timestamp;pressure;altitude;pressure_sealevel;temperature;humidity
75555;BME280;66087;53.126;17.960;2023-07-24T00:02:20;99920.48;;;18.80;50.07
75555;BME280;66087;53.126;17.960;2023-07-24T00:04:50;99916.67;;;18.79;50.08
75555;BME280;66087;53.126;17.960;2023-07-24T00:07:17;99915.35;;;18.78;50.26
75555;BME280;66087;53.126;17.960;2023-07-24T00:09:44;99917.34;;;18.77;50.33
75555;BME280;66087;53.126;17.960;2023-07-24T00:12:10;99918.05;;;18.78;50.13
75555;BME280;66087;53.126;17.960;2023-07-24T00:14:37;99924.52;;;18.79;50.29
75555;BME280;66087;53.126;17.960;2023-07-24T00:17:04;99928.54;;;18.79;50.34
75555;BME280;66087;53.126;17.960;2023-07-24T00:19:34;99926.92;;;18.78;50.53
75555;BME280;66087;53.126;17.960;2023-07-24T00:22:01;99921.59;;;18.77;50.41
75555;BME280;66087;53.126;17.960;2023-07-24T00:24:31;99915.71;;;18.76;50.39
75555;BME280;66087;53.126;17.960;2023-07-24T00:26:58;99912.08;;;18.73;50.58
75555;BME280;66087;53.126;17.960;2023-07-24T00:29:24;99908.73;;;18.69;50.65
75555;BME280;66087;53.126;17.960;2023-07-24T00:31:51;99916.66;;;18.66;50.62
75555;BME280;66087;53.126;17.960;2023-07-24T00:34:18;99918.19;;;18.61;50.89
75555;BME280;66087;53.126;17.960;2023-07-24T00:36:44;99917.13;;;18.57;50.97
75555;BME280;66087;53.126;17.960;2023-07-24T00:39:13;99919.20;;;18.52;50.87
75555;BME280;66087;53.126;17.960;2023-07-24T00:41:41;99924.37;;;18.47;51.28
75555;BME280;66087;53.126;17.960;2023-07-24T00:44:08;99925.48;;;18.40;51.20
75555;BME280;66087;53.126;17.960;2023-07-24T00:46:34;99920.23;;;18.34;51.51
75555;BME280;66087;53.126;17.960;2023-07-24T00:49:04;99916.05;;;18.28;51.42
75555;BME280;66087;53.126;17.960;2023-07-24T00:51:33;99915.34;;;18.24;51.61
75555;BME280;66087;53.126;17.960;2023-07-24T00:54:01;99915.58;;;18.20;51.67
75555;BME280;66087;53.126;17.960;2023-07-24T00:56:30;99913.30;;;18.16;52.00
75555;BME280;66087;53.126;17.960;2023-07-24T00:58:59;99909.45;;;18.13;51.73
75555;BME280;66087;53.126;17.960;2023-07-24T01:01:26;99916.80;;;18.11;52.01
75555;BME280;66087;53.126;17.960;2023-07-24T01:03:53;99920.95;;;18.08;52.10
75555;BME280;66087;53.126;17.960;2023-07-24T01:06:20;99922.95;;;18.05;52.25
75555;BME280;66087;53.126;17.960;2023-07-24T01:08:47;99923.90;;;18.02;52.36
75555;BME280;66087;53.126;17.960;2023-07-24T01:11:19;99924.10;;;17.98;52.69
75555;BME280;66087;53.126;17.960;2023-07-24T01:13:55;99921.85;;;17.95;52.71
75555;BME280;66087;53.126;17.960;2023-07-24T01:16:26;99916.81;;;17.90;52.66
75555;BME280;66087;53.126;17.960;2023-07-24T01:19:00;99915.08;;;17.88;52.89
75555;BME280;66087;53.126;17.960;2023-07-24T01:21:33;99911.59;;;17.86;52.80
75555;BME280;66087;53.126;17.960;2023-07-24T01:24:19;99909.85;;;17.83;52.91
75555;BME280;66087;53.126;17.960;2023-07-24T01:26:52;99909.27;;;17.80;53.28
75555;BME280;66087;53.126;17.960;2023-07-24T01:29:19;99905.80;;;17.79;52.98
75555;BME280;66087;53.126;17.960;2023-07-24T01:31:46;99903.27;;;17.78;53.05
75555;BME280;66087;53.126;17.960;2023-07-24T01:34:13;99906.15;;;17.77;53.19
75555;BME280;66087;53.126;17.960;2023-07-24T01:36:40;99902.67;;;17.76;53.33
75555;BME280;66087;53.126;17.960;2023-07-24T01:39:09;99899.73;;;17.75;53.11
75555;BME280;66087;53.126;17.960;2023-07-24T01:41:35;99891.16;;;17.74;53.20
75555;BME280;66087;53.126;17.960;2023-07-24T01:44:05;99889.08;;;17.73;53.41
75555;BME280;66087;53.126;17.960;2023-07-24T01:46:32;99888.54;;;17.70;53.44
75555;BME280;66087;53.126;17.960;2023-07-24T01:49:03;99893.05;;;17.67;53.38
75555;BME280;66087;53.126;17.960;2023-07-24T01:51:30;99889.52;;;17.63;53.55
75555;BME280;66087;53.126;17.960;2023-07-24T01:53:57;99891.18;;;17.61;53.61
75555;BME280;66087;53.126;17.960;2023-07-24T01:56:24;99890.32;;;17.57;53.81
75555;BME280;66087;53.126;17.960;2023-07-24T01:58:50;99893.31;;;17.52;54.02
75555;BME280;66087;53.126;17.960;2023-07-24T02:01:18;99897.98;;;17.48;54.16
75555;BME280;66087;53.126;17.960;2023-07-24T02:04:05;99903.43;;;17.39;54.29
75555;BME280;66087;53.126;17.960;2023-07-24T02:06:53;99908.22;;;17.33;54.34
75555;BME280;66087;53.126;17.960;2023-07-24T02:09:20;99900.56;;;17.27;54.66
75555;BME280;66087;53.126;17.960;2023-07-24T02:11:48;99900.77;;;17.23;54.63
75555;BME280;66087;53.126;17.960;2023-07-24T02:14:17;99897.59;;;17.20;54.92
75555;BME280;66087;53.126;17.960;2023-07-24T02:16:44;99898.36;;;17.16;55.05
75555;BME280;66087;53.126;17.960;2023-07-24T02:19:11;99895.70;;;17.13;55.24
75555;BME280;66087;53.126;17.960;2023-07-24T02:21:38;99898.44;;;17.10;55.27
75555;BME280;66087;53.126;17.960;2023-07-24T02:24:08;99901.04;;;17.07;55.23
75555;BME280;66087;53.126;17.960;2023-07-24T02:26:34;99897.19;;;17.04;55.17
75555;BME280;66087;53.126;17.960;2023-07-24T02:29:07;99898.17;;;17.02;55.04
75555;BME280;66087;53.126;17.960;2023-07-24T02:31:34;99899.45;;;17.00;55.36
75555;BME280;66087;53.126;17.960;2023-07-24T02:34:00;99891.86;;;16.98;55.45
75555;BME280;66087;53.126;17.960;2023-07-24T02:36:27;99894.04;;;16.97;55.85
75555;BME280;66087;53.126;17.960;2023-07-24T02:38:53;99891.73;;;16.93;55.89
75555;BME280;66087;53.126;17.960;2023-07-24T02:41:20;99889.66;;;16.90;56.03
75555;BME280;66087;53.126;17.960;2023-07-24T02:43:51;99887.39;;;16.89;55.80
75555;BME280;66087;53.126;17.960;2023-07-24T02:46:20;99885.04;;;16.89;56.21
75555;BME280;66087;53.126;17.960;2023-07-24T02:48:49;99889.15;;;16.89;56.13
75555;BME280;66087;53.126;17.960;2023-07-24T02:51:15;99887.39;;;16.91;56.04
75555;BME280;66087;53.126;17.960;2023-07-24T02:53:42;99883.41;;;16.92;56.41
75555;BME280;66087;53.126;17.960;2023-07-24T02:56:08;99874.80;;;16.94;56.38
75555;BME280;66087;53.126;17.960;2023-07-24T02:58:38;99877.50;;;16.96;56.32
75555;BME280;66087;53.126;17.960;2023-07-24T03:01:06;99876.24;;;16.99;56.27
75555;BME280;66087;53.126;17.960;2023-07-24T03:03:35;99869.70;;;17.01;56.36
75555;BME280;66087;53.126;17.960;2023-07-24T03:06:02;99866.33;;;17.05;56.52
75555;BME280;66087;53.126;17.960;2023-07-24T03:08:28;99869.70;;;17.06;56.54
75555;BME280;66087;53.126;17.960;2023-07-24T03:10:56;99866.39;;;17.08;56.56
75555;BME280;66087;53.126;17.960;2023-07-24T03:13:23;99872.98;;;17.11;56.57
75555;BME280;66087;53.126;17.960;2023-07-24T03:15:57;99882.97;;;17.13;56.70
75555;BME280;66087;53.126;17.960;2023-07-24T03:18:25;99884.00;;;17.14;56.73
75555;BME280;66087;53.126;17.960;2023-07-24T03:20:52;99888.58;;;17.17;57.09
75555;BME280;66087;53.126;17.960;2023-07-24T03:23:19;99891.42;;;17.20;56.98
75555;BME280;66087;53.126;17.960;2023-07-24T03:25:49;99888.81;;;17.22;56.72
75555;BME280;66087;53.126;17.960;2023-07-24T03:28:18;99889.06;;;17.24;57.14
75555;BME280;66087;53.126;17.960;2023-07-24T03:30:44;99890.90;;;17.27;56.94
75555;BME280;66087;53.126;17.960;2023-07-24T03:33:11;99887.45;;;17.28;57.11
75555;BME280;66087;53.126;17.960;2023-07-24T03:35:38;99891.94;;;17.31;57.01
75555;BME280;66087;53.126;17.960;2023-07-24T03:38:10;99899.68;;;17.34;57.13
75555;BME280;66087;53.126;17.960;2023-07-24T03:40:37;99890.27;;;17.36;57.55
75555;BME280;66087;53.126;17.960;2023-07-24T03:43:05;99884.32;;;17.39;57.61
75555;BME280;66087;53.126;17.960;2023-07-24T03:45:34;99886.45;;;17.43;57.40
75555;BME280;66087;53.126;17.960;2023-07-24T03:48:00;99887.28;;;17.48;57.50
75555;BME280;66087;53.126;17.960;2023-07-24T03:50:29;99885.80;;;17.52;57.96
75555;BME280;66087;53.126;17.960;2023-07-24T03:52:55;99886.23;;;17.56;57.91
75555;BME280;66087;53.126;17.960;2023-07-24T03:55:22;99883.80;;;17.59;57.96
75555;BME280;66087;53.126;17.960;2023-07-24T03:57:49;99884.46;;;17.63;57.73
75555;BME280;66087;53.126;17.960;2023-07-24T04:00:16;99885.19;;;17.67;57.50
75555;BME280;66087;53.126;17.960;2023-07-24T04:02:47;99887.86;;;17.71;57.83
75555;BME280;66087;53.126;17.960;2023-07-24T04:05:15;99885.81;;;17.74;57.77
75555;BME280;66087;53.126;17.960;2023-07-24T04:07:42;99888.75;;;17.76;57.94
75555;BME280;66087;53.126;17.960;2023-07-24T04:10:09;99888.91;;;17.78;57.87
75555;BME280;66087;53.126;17.960;2023-07-24T04:12:47;99890.13;;;17.78;57.88
75555;BME280;66087;53.126;17.960;2023-07-24T04:15:18;99882.36;;;17.81;57.98
75555;BME280;66087;53.126;17.960;2023-07-24T04:17:47;99887.23;;;17.84;57.83
75555;BME280;66087;53.126;17.960;2023-07-24T04:20:14;99886.44;;;17.89;57.83
75555;BME280;66087;53.126;17.960;2023-07-24T04:22:41;99884.35;;;17.92;57.88
75555;BME280;66087;53.126;17.960;2023-07-24T04:25:14;99882.35;;;17.99;57.97
75555;BME280;66087;53.126;17.960;2023-07-24T04:27:45;99885.61;;;18.06;57.92
75555;BME280;66087;53.126;17.960;2023-07-24T04:30:11;99887.92;;;18.11;57.86
75555;BME280;66087;53.126;17.960;2023-07-24T04:32:40;99892.72;;;18.17;57.83
75555;BME280;66087;53.126;17.960;2023-07-24T04:35:10;99892.97;;;18.21;57.68
75555;BME280;66087;53.126;17.960;2023-07-24T04:37:37;99886.88;;;18.21;57.87
75555;BME280;66087;53.126;17.960;2023-07-24T04:40:04;99893.95;;;18.26;57.84
75555;BME280;66087;53.126;17.960;2023-07-24T04:42:32;99888.00;;;18.30;57.64
75555;BME280;66087;53.126;17.960;2023-07-24T04:44:59;99887.74;;;18.33;57.81
75555;BME280;66087;53.126;17.960;2023-07-24T04:47:25;99887.23;;;18.36;57.85
75555;BME280;66087;53.126;17.960;2023-07-24T04:49:55;99889.48;;;18.40;57.90
75555;BME280;66087;53.126;17.960;2023-07-24T04:52:23;99887.30;;;18.42;58.00
75555;BME280;66087;53.126;17.960;2023-07-24T04:54:51;99884.40;;;18.46;58.18
75555;BME280;66087;53.126;17.960;2023-07-24T04:57:20;99882.01;;;18.49;58.02
75555;BME280;66087;53.126;17.960;2023-07-24T04:59:46;99894.95;;;18.57;58.13
75555;BME280;66087;53.126;17.960;2023-07-24T05:02:33;99895.92;;;18.63;58.25
75555;BME280;66087;53.126;17.960;2023-07-24T05:05:02;99897.56;;;18.65;58.09
75555;BME280;66087;53.126;17.960;2023-07-24T05:07:34;99892.75;;;18.69;58.07
75555;BME280;66087;53.126;17.960;2023-07-24T05:10:00;99891.15;;;18.77;58.03
75555;BME280;66087;53.126;17.960;2023-07-24T05:12:29;99890.92;;;18.87;57.85
75555;BME280;66087;53.126;17.960;2023-07-24T05:14:55;99892.73;;;18.96;57.89
75555;BME280;66087;53.126;17.960;2023-07-24T05:17:25;99896.03;;;19.04;57.78
75555;BME280;66087;53.126;17.960;2023-07-24T05:19:55;99898.33;;;19.09;57.76
75555;BME280;66087;53.126;17.960;2023-07-24T05:22:22;99896.90;;;19.12;57.80
75555;BME280;66087;53.126;17.960;2023-07-24T05:24:49;99895.48;;;19.21;57.67
75555;BME280;66087;53.126;17.960;2023-07-24T05:27:16;99900.17;;;19.33;57.46
75555;BME280;66087;53.126;17.960;2023-07-24T05:29:45;99896.91;;;19.46;57.39
75555;BME280;66087;53.126;17.960;2023-07-24T05:32:11;99900.13;;;19.55;57.27
75555;BME280;66087;53.126;17.960;2023-07-24T05:34:38;99901.77;;;19.65;57.16
75555;BME280;66087;53.126;17.960;2023-07-24T05:37:05;99903.50;;;19.74;57.23
75555;BME280;66087;53.126;17.960;2023-07-24T05:39:33;99902.00;;;19.70;57.79
75555;BME280;66087;53.126;17.960;2023-07-24T05:42:01;99902.99;;;19.62;58.42
75555;BME280;66087;53.126;17.960;2023-07-24T05:44:28;99900.85;;;19.53;58.86
75555;BME280;66087;53.126;17.960;2023-07-24T05:46:56;99903.58;;;19.45;59.51
75555;BME280;66087;53.126;17.960;2023-07-24T05:49:24;99907.45;;;19.37;60.08
75555;BME280;66087;53.126;17.960;2023-07-24T05:51:51;99909.58;;;19.26;61.55
75555;BME280;66087;53.126;17.960;2023-07-24T05:54:18;99919.11;;;19.13;61.65
75555;BME280;66087;53.126;17.960;2023-07-24T06:04:33;99933.29;;;18.75;64.29
75555;BME280;66087;53.126;17.960;2023-07-24T06:07:00;99931.10;;;18.68;65.23
75555;BME280;66087;53.126;17.960;2023-07-24T06:09:39;99925.33;;;18.59;64.83
75555;BME280;66087;53.126;17.960;2023-07-24T06:12:06;99920.82;;;18.60;65.60
75555;BME280;66087;53.126;17.960;2023-07-24T06:14:34;99915.02;;;18.61;65.44
75555;BME280;66087;53.126;17.960;2023-07-24T06:17:00;99920.94;;;18.66;65.66
75555;BME280;66087;53.126;17.960;2023-07-24T06:19:28;99916.99;;;18.70;65.70
75555;BME280;66087;53.126;17.960;2023-07-24T06:28:31;99911.91;;;19.33;65.31
75555;BME280;66087;53.126;17.960;2023-07-24T06:31:00;99909.27;;;19.43;65.82
75555;BME280;66087;53.126;17.960;2023-07-24T06:33:28;99911.61;;;19.52;65.43
75555;BME280;66087;53.126;17.960;2023-07-24T06:35:57;99902.91;;;19.64;65.22
75555;BME280;66087;53.126;17.960;2023-07-24T06:38:26;99894.73;;;19.71;65.46
75555;BME280;66087;53.126;17.960;2023-07-24T06:40:53;99881.27;;;19.78;65.10
75555;BME280;66087;53.126;17.960;2023-07-24T06:43:24;99875.86;;;19.88;65.23
75555;BME280;66087;53.126;17.960;2023-07-24T06:45:51;99872.12;;;19.98;65.08
75555;BME280;66087;53.126;17.960;2023-07-24T06:48:17;99868.23;;;20.07;65.47
75555;BME280;66087;53.126;17.960;2023-07-24T06:50:45;99864.02;;;20.12;65.63
75555;BME280;66087;53.126;17.960;2023-07-24T06:53:18;99857.00;;;20.19;65.44
75555;BME280;66087;53.126;17.960;2023-07-24T06:55:45;99859.89;;;20.39;65.56
75555;BME280;66087;53.126;17.960;2023-07-24T06:58:15;99853.50;;;20.58;65.24
75555;BME280;66087;53.126;17.960;2023-07-24T07:00:42;99851.94;;;20.68;65.21
75555;BME280;66087;53.126;17.960;2023-07-24T07:03:09;99850.31;;;20.74;65.33
75555;BME280;66087;53.126;17.960;2023-07-24T07:05:45;99853.31;;;20.90;65.02
75555;BME280;66087;53.126;17.960;2023-07-24T07:08:12;99853.95;;;21.03;64.97
75555;BME280;66087;53.126;17.960;2023-07-24T07:10:38;99851.95;;;21.15;64.84
75555;BME280;66087;53.126;17.960;2023-07-24T07:13:05;99850.46;;;21.31;64.63
75555;BME280;66087;53.126;17.960;2023-07-24T07:15:32;99849.22;;;21.45;64.78
75555;BME280;66087;53.126;17.960;2023-07-24T07:17:58;99851.48;;;21.47;64.62
75555;BME280;66087;53.126;17.960;2023-07-24T07:20:25;99846.35;;;21.52;64.40
75555;BME280;66087;53.126;17.960;2023-07-24T07:22:52;99841.21;;;21.54;64.73
75555;BME280;66087;53.126;17.960;2023-07-24T07:25:18;99837.29;;;21.52;64.34
75555;BME280;66087;53.126;17.960;2023-07-24T07:27:45;99835.69;;;21.56;64.44
75555;BME280;66087;53.126;17.960;2023-07-24T07:30:11;99838.45;;;21.61;64.30
75555;BME280;66087;53.126;17.960;2023-07-24T07:32:38;99843.33;;;21.61;64.23
75555;BME280;66087;53.126;17.960;2023-07-24T07:35:06;99840.56;;;21.58;64.31
75555;BME280;66087;53.126;17.960;2023-07-24T07:37:33;99832.11;;;21.69;64.13
75555;BME280;66087;53.126;17.960;2023-07-24T07:39:59;99825.10;;;21.81;63.77
75555;BME280;66087;53.126;17.960;2023-07-24T07:42:26;99826.77;;;21.93;63.67
75555;BME280;66087;53.126;17.960;2023-07-24T07:44:54;99822.10;;;22.11;63.67
75555;BME280;66087;53.126;17.960;2023-07-24T07:47:20;99820.98;;;22.34;63.33
75555;BME280;66087;53.126;17.960;2023-07-24T07:49:47;99820.27;;;22.48;63.05
75555;BME280;66087;53.126;17.960;2023-07-24T07:52:14;99819.16;;;22.58;62.82
75555;BME280;66087;53.126;17.960;2023-07-24T07:54:47;99815.26;;;22.66;62.53
75555;BME280;66087;53.126;17.960;2023-07-24T07:57:14;99813.96;;;22.76;62.54
75555;BME280;66087;53.126;17.960;2023-07-24T07:59:41;99811.14;;;22.85;62.16
75555;BME280;66087;53.126;17.960;2023-07-24T08:02:08;99799.00;;;22.85;62.40
75555;BME280;66087;53.126;17.960;2023-07-24T08:04:42;99800.54;;;22.89;62.04
75555;BME280;66087;53.126;17.960;2023-07-24T08:07:09;99795.29;;;22.89;61.77
75555;BME280;66087;53.126;17.960;2023-07-24T08:09:35;99797.28;;;22.91;61.64
75555;BME280;66087;53.126;17.960;2023-07-24T08:12:05;99797.11;;;22.96;61.16
75555;BME280;66087;53.126;17.960;2023-07-24T08:14:31;99793.04;;;23.01;61.08
75555;BME280;66087;53.126;17.960;2023-07-24T08:16:58;99788.02;;;23.05;60.92
75555;BME280;66087;53.126;17.960;2023-07-24T08:19:28;99781.98;;;23.23;60.63
75555;BME280;66087;53.126;17.960;2023-07-24T08:22:00;99786.87;;;23.39;59.36
75555;BME280;66087;53.126;17.960;2023-07-24T08:24:27;99782.61;;;23.59;58.92
75555;BME280;66087;53.126;17.960;2023-07-24T08:26:53;99779.46;;;23.76;57.72
75555;BME280;66087;53.126;17.960;2023-07-24T08:29:20;99773.41;;;23.91;56.92
75555;BME280;66087;53.126;17.960;2023-07-24T08:31:47;99771.17;;;24.05;56.42
75555;BME280;66087;53.126;17.960;2023-07-24T08:34:13;99772.16;;;24.14;55.04
75555;BME280;66087;53.126;17.960;2023-07-24T08:36:49;99764.59;;;24.27;55.18
75555;BME280;66087;53.126;17.960;2023-07-24T08:39:16;99760.52;;;24.37;54.46
75555;BME280;66087;53.126;17.960;2023-07-24T08:41:43;99756.79;;;24.44;53.67
75555;BME280;66087;53.126;17.960;2023-07-24T08:44:12;99759.02;;;24.50;53.42
75555;BME280;66087;53.126;17.960;2023-07-24T08:46:40;99756.35;;;24.51;51.75
75555;BME280;66087;53.126;17.960;2023-07-24T08:49:12;99754.90;;;24.49;51.88
75555;BME280;66087;53.126;17.960;2023-07-24T08:51:43;99759.81;;;24.40;51.17
75555;BME280;66087;53.126;17.960;2023-07-24T08:54:11;99754.39;;;24.38;51.76
75555;BME280;66087;53.126;17.960;2023-07-24T08:56:38;99753.19;;;24.37;51.01
75555;BME280;66087;53.126;17.960;2023-07-24T08:59:12;99746.44;;;24.39;51.85
75555;BME280;66087;53.126;17.960;2023-07-24T09:01:41;99758.80;;;24.41;50.91
75555;BME280;66087;53.126;17.960;2023-07-24T09:08:32;99757.11;;;24.38;50.63
75555;BME280;66087;53.126;17.960;2023-07-24T09:11:01;99740.17;;;24.43;51.34
75555;BME280;66087;53.126;17.960;2023-07-24T09:13:28;99737.75;;;24.50;50.96
75555;BME280;66087;53.126;17.960;2023-07-24T09:15:55;99747.48;;;24.45;50.63
75555;BME280;66087;53.126;17.960;2023-07-24T09:18:25;99743.83;;;24.31;50.94
75555;BME280;66087;53.126;17.960;2023-07-24T09:20:54;99740.33;;;24.28;50.95
75555;BME280;66087;53.126;17.960;2023-07-24T09:23:28;99731.33;;;24.32;51.24
75555;BME280;66087;53.126;17.960;2023-07-24T09:25:58;99732.30;;;24.36;50.61
75555;BME280;66087;53.126;17.960;2023-07-24T09:28:24;99733.95;;;24.40;50.68
75555;BME280;66087;53.126;17.960;2023-07-24T09:30:54;99730.05;;;24.52;50.50
75555;BME280;66087;53.126;17.960;2023-07-24T09:33:23;99727.65;;;24.70;50.22
75555;BME280;66087;53.126;17.960;2023-07-24T09:35:59;99738.09;;;24.94;49.60
75555;BME280;66087;53.126;17.960;2023-07-24T09:38:27;99730.16;;;25.09;49.01
75555;BME280;66087;53.126;17.960;2023-07-24T09:40:55;99724.30;;;25.38;48.79
75555;BME280;66087;53.126;17.960;2023-07-24T09:43:25;99724.95;;;25.60;48.15
75555;BME280;66087;53.126;17.960;2023-07-24T09:45:52;99724.37;;;25.77;47.46
75555;BME280;66087;53.126;17.960;2023-07-24T09:48:22;99721.89;;;25.91;46.94
75555;BME280;66087;53.126;17.960;2023-07-24T09:50:59;99721.43;;;26.18;46.47
75555;BME280;66087;53.126;17.960;2023-07-24T09:53:52;99728.69;;;26.45;45.83
75555;BME280;66087;53.126;17.960;2023-07-24T09:56:22;99713.88;;;26.54;45.52
75555;BME280;66087;53.126;17.960;2023-07-24T09:58:51;99714.11;;;26.48;45.46
75555;BME280;66087;53.126;17.960;2023-07-24T10:01:22;99715.54;;;26.52;44.89
75555;BME280;66087;53.126;17.960;2023-07-24T10:04:00;99715.70;;;26.58;44.17
75555;BME280;66087;53.126;17.960;2023-07-24T10:06:28;99709.63;;;26.71;43.81
75555;BME280;66087;53.126;17.960;2023-07-24T10:08:56;99696.38;;;26.83;43.87
75555;BME280;66087;53.126;17.960;2023-07-24T10:11:24;99699.34;;;27.07;43.76
75555;BME280;66087;53.126;17.960;2023-07-24T10:13:52;99690.48;;;27.38;43.47
75555;BME280;66087;53.126;17.960;2023-07-24T10:16:20;99688.61;;;27.63;43.33
75555;BME280;66087;53.126;17.960;2023-07-24T10:18:48;99688.05;;;27.82;42.28
75555;BME280;66087;53.126;17.960;2023-07-24T10:21:18;99675.54;;;27.92;42.05
75555;BME280;66087;53.126;17.960;2023-07-24T10:23:59;99672.21;;;28.05;41.52
75555;BME280;66087;53.126;17.960;2023-07-24T10:26:26;99666.91;;;28.14;41.15
75555;BME280;66087;53.126;17.960;2023-07-24T10:28:53;99653.85;;;28.14;41.36
75555;BME280;66087;53.126;17.960;2023-07-24T10:31:23;99653.25;;;28.22;41.47
75555;BME280;66087;53.126;17.960;2023-07-24T10:33:54;99659.60;;;28.24;40.76
75555;BME280;66087;53.126;17.960;2023-07-24T10:36:24;99669.73;;;27.90;39.47
75555;BME280;66087;53.126;17.960;2023-07-24T10:38:53;99662.45;;;27.60;40.67
75555;BME280;66087;53.126;17.960;2023-07-24T10:41:34;99660.19;;;27.67;40.51
75555;BME280;66087;53.126;17.960;2023-07-24T10:44:02;99666.42;;;27.93;40.16
75555;BME280;66087;53.126;17.960;2023-07-24T10:46:37;99661.02;;;28.07;39.61
75555;BME280;66087;53.126;17.960;2023-07-24T10:49:04;99669.94;;;28.17;38.94
75555;BME280;66087;53.126;17.960;2023-07-24T10:51:31;99661.71;;;28.21;38.95
75555;BME280;66087;53.126;17.960;2023-07-24T10:54:03;99657.51;;;28.26;39.27
75555;BME280;66087;53.126;17.960;2023-07-24T10:56:30;99661.02;;;28.43;38.88
75555;BME280;66087;53.126;17.960;2023-07-24T10:59:02;99648.37;;;28.56;38.71
75555;BME280;66087;53.126;17.960;2023-07-24T11:01:29;99640.13;;;28.58;38.80
75555;BME280;66087;53.126;17.960;2023-07-24T11:03:56;99645.13;;;28.57;38.85
75555;BME280;66087;53.126;17.960;2023-07-24T11:06:22;99641.59;;;28.66;38.50
75555;BME280;66087;53.126;17.960;2023-07-24T11:08:58;99634.37;;;28.66;38.37
75555;BME280;66087;53.126;17.960;2023-07-24T11:11:35;99633.89;;;28.58;38.37
75555;BME280;66087;53.126;17.960;2023-07-24T11:14:03;99636.94;;;28.68;38.17
75555;BME280;66087;53.126;17.960;2023-07-24T11:16:30;99637.38;;;28.84;37.68
75555;BME280;66087;53.126;17.960;2023-07-24T11:18:58;99629.61;;;28.92;37.20
75555;BME280;66087;53.126;17.960;2023-07-24T11:21:27;99628.71;;;29.00;36.73
75555;BME280;66087;53.126;17.960;2023-07-24T11:23:55;99622.45;;;29.13;36.91
75555;BME280;66087;53.126;17.960;2023-07-24T11:26:26;99629.36;;;29.20;36.39
75555;BME280;66087;53.126;17.960;2023-07-24T11:28:53;99628.82;;;29.01;35.99
75555;BME280;66087;53.126;17.960;2023-07-24T11:31:20;99636.14;;;28.87;35.95
75555;BME280;66087;53.126;17.960;2023-07-24T11:33:49;99639.35;;;28.93;35.91
75555;BME280;66087;53.126;17.960;2023-07-24T11:36:17;99632.61;;;29.16;35.87
75555;BME280;66087;53.126;17.960;2023-07-24T11:38:45;99624.98;;;29.41;35.47
75555;BME280;66087;53.126;17.960;2023-07-24T11:41:12;99626.85;;;29.53;35.15
75555;BME280;66087;53.126;17.960;2023-07-24T11:43:46;99622.46;;;29.44;35.31
75555;BME280;66087;53.126;17.960;2023-07-24T11:46:25;99624.02;;;29.52;35.28
75555;BME280;66087;53.126;17.960;2023-07-24T11:48:53;99633.89;;;29.59;34.68
75555;BME280;66087;53.126;17.960;2023-07-24T11:51:26;99626.21;;;29.54;34.44
75555;BME280;66087;53.126;17.960;2023-07-24T11:54:06;99619.42;;;29.74;34.45
75555;BME280;66087;53.126;17.960;2023-07-24T11:56:33;99611.05;;;29.99;33.66
75555;BME280;66087;53.126;17.960;2023-07-24T11:59:11;99604.23;;;30.18;33.83
75555;BME280;66087;53.126;17.960;2023-07-24T12:01:39;99609.27;;;30.32;33.22
75555;BME280;66087;53.126;17.960;2023-07-24T12:04:06;99616.52;;;30.41;33.11
75555;BME280;66087;53.126;17.960;2023-07-24T12:06:33;99601.03;;;30.56;33.07
75555;BME280;66087;53.126;17.960;2023-07-24T12:09:03;99596.73;;;30.64;33.13
75555;BME280;66087;53.126;17.960;2023-07-24T12:11:40;99608.69;;;30.62;32.64
75555;BME280;66087;53.126;17.960;2023-07-24T12:14:08;99608.68;;;30.63;32.47
75555;BME280;66087;53.126;17.960;2023-07-24T12:16:38;99604.06;;;30.57;32.47
75555;BME280;66087;53.126;17.960;2023-07-24T12:19:08;99594.36;;;30.51;32.84
75555;BME280;66087;53.126;17.960;2023-07-24T12:21:34;99588.20;;;30.55;32.92
75555;BME280;66087;53.126;17.960;2023-07-24T12:24:04;99589.11;;;30.57;33.17
75555;BME280;66087;53.126;17.960;2023-07-24T12:26:31;99584.85;;;30.65;32.66
75555;BME280;66087;53.126;17.960;2023-07-24T12:28:57;99576.23;;;30.73;32.95
75555;BME280;66087;53.126;17.960;2023-07-24T12:31:26;99582.60;;;30.80;32.75
75555;BME280;66087;53.126;17.960;2023-07-24T12:33:53;99584.77;;;30.71;31.60
75555;BME280;66087;53.126;17.960;2023-07-24T12:36:26;99572.10;;;30.78;32.23
75555;BME280;66087;53.126;17.960;2023-07-24T12:38:53;99563.46;;;30.91;32.24
75555;BME280;66087;53.126;17.960;2023-07-24T12:41:20;99560.86;;;30.83;32.55
75555;BME280;66087;53.126;17.960;2023-07-24T12:43:47;99557.74;;;30.73;32.36
75555;BME280;66087;53.126;17.960;2023-07-24T12:46:13;99565.98;;;30.66;32.25
75555;BME280;66087;53.126;17.960;2023-07-24T12:48:40;99559.84;;;30.60;31.66
75555;BME280;66087;53.126;17.960;2023-07-24T12:51:11;99548.73;;;30.67;31.39
75555;BME280;66087;53.126;17.960;2023-07-24T12:53:39;99553.50;;;30.94;31.42
75555;BME280;66087;53.126;17.960;2023-07-24T12:56:05;99548.52;;;31.24;30.80
75555;BME280;66087;53.126;17.960;2023-07-24T12:58:36;99535.19;;;31.47;30.60
75555;BME280;66087;53.126;17.960;2023-07-24T13:01:03;99525.67;;;31.72;30.67
75555;BME280;66087;53.126;17.960;2023-07-24T13:03:31;99517.23;;;31.84;30.15
75555;BME280;66087;53.126;17.960;2023-07-24T13:05:57;99514.70;;;32.06;30.13
75555;BME280;66087;53.126;17.960;2023-07-24T13:08:28;99506.42;;;32.38;29.24
75555;BME280;66087;53.126;17.960;2023-07-24T13:10:56;99507.49;;;32.75;28.67
75555;BME280;66087;53.126;17.960;2023-07-24T13:13:25;99503.75;;;33.39;28.00
75555;BME280;66087;53.126;17.960;2023-07-24T13:15:54;99490.95;;;33.76;27.98
75555;BME280;66087;53.126;17.960;2023-07-24T13:18:22;99496.89;;;33.96;27.58